Time;durP1;ratioP1;P1;durP2;ratioP2;P2;SDS_P1;SDS_P2;PMS_P1;PMS_P2;Temp;Humidity;BMP_temperature;BMP_pressure;BME280_temperature;BME280_humidity;BME280_pressure;Samples;Min_cycle;Max_cycle;Signal;HPM_P1;HPM_P2
2023/12/16 00:03:30;;;;;;;37.70;19.90;;;;;;;2.52;96.17;101494.09;218310;1262;139975;-65
2023/12/16 00:08:35;;;;;;;47.40;20.80;;;;;;;2.53;96.34;101490.04;218373;1263;139808;-65
2023/12/16 00:13:40;;;;;;;54.70;23.10;;;;;;;2.53;96.37;101492.59;218440;1257;140907;-64
2023/12/16 00:18:45;;;;;;;46.00;19.70;;;;;;;2.54;96.50;101498.39;218833;1263;141014;-63
2023/12/16 00:23:50;;;;;;;35.70;17.70;;;;;;;2.57;96.63;101485.06;218415;1258;139985;-63
2023/12/16 00:28:54;;;;;;;49.30;23.80;;;;;;;2.57;96.66;101473.47;218077;1257;140806;-63
2023/12/16 00:33:59;;;;;;;55.20;24.30;;;;;;;2.58;96.79;101464.08;219160;1257;141755;-65
2023/12/16 00:39:03;;;;;;;43.00;19.60;;;;;;;2.60;96.91;101469.15;218927;1257;141412;-64
2023/12/16 00:44:08;;;;;;;47.20;20.40;;;;;;;2.63;97.08;101486.64;218058;1258;139829;-64
2023/12/16 00:49:11;;;;;;;37.50;18.50;;;;;;;2.66;97.18;101498.64;218797;1263;140709;-63
2023/12/16 00:54:16;;;;;;;39.40;19.10;;;;;;;2.65;97.23;101499.06;220016;1257;141029;-64
2023/12/16 00:59:22;;;;;;;41.00;19.60;;;;;;;2.69;97.42;101504.52;219296;1257;140452;-64
2023/12/16 01:04:27;;;;;;;46.70;21.50;;;;;;;2.73;97.27;101518.92;217707;1263;140000;-63
2023/12/16 01:09:32;;;;;;;37.90;20.70;;;;;;;2.75;97.48;101522.38;218926;1257;140110;-64
2023/12/16 01:14:36;;;;;;;44.20;20.30;;;;;;;2.79;97.67;101528.65;220182;1257;140778;-65
2023/12/16 01:19:40;;;;;;;37.50;18.00;;;;;;;2.81;97.48;101526.77;217881;1257;140572;-64
2023/12/16 01:24:46;;;;;;;33.60;17.00;;;;;;;2.81;97.56;101520.39;218801;1257;140056;-66
2023/12/16 01:29:50;;;;;;;38.80;17.80;;;;;;;2.82;97.45;101513.98;217833;1257;140761;-66
2023/12/16 01:34:56;;;;;;;36.80;20.00;;;;;;;2.82;97.59;101507.89;217332;1260;139925;-63
2023/12/16 01:40:00;;;;;;;35.70;18.60;;;;;;;2.82;97.81;101506.80;218586;1257;140258;-63
2023/12/16 01:45:04;;;;;;;29.50;16.90;;;;;;;2.82;97.77;101496.46;218469;1257;144332;-65
2023/12/16 01:50:10;;;;;;;41.50;19.40;;;;;;;2.81;97.87;101502.81;217962;1257;140942;-64
2023/12/16 01:55:16;;;;;;;35.40;16.70;;;;;;;2.86;98.05;101512.43;218575;1257;140238;-66
2023/12/16 02:00:21;;;;;;;43.50;19.30;;;;;;;2.88;98.10;101518.89;217626;1257;140529;-66
2023/12/16 02:05:26;;;;;;;34.70;17.00;;;;;;;2.88;98.09;101526.23;219451;1255;140107;-65
2023/12/16 02:10:30;;;;;;;38.70;18.90;;;;;;;2.87;98.26;101535.27;217893;1256;140580;-65
2023/12/16 02:15:35;;;;;;;45.00;21.30;;;;;;;2.90;98.31;101533.94;217868;1257;140091;-64
2023/12/16 02:20:39;;;;;;;29.70;13.60;;;;;;;2.92;98.42;101533.59;218026;1257;139909;-63
2023/12/16 02:25:45;;;;;;;23.20;11.60;;;;;;;2.92;98.42;101539.01;219026;1257;141159;-67
2023/12/16 02:30:50;;;;;;;41.70;20.40;;;;;;;2.93;98.49;101535.66;218050;1257;140098;-63
2023/12/16 02:35:55;;;;;;;34.60;15.10;;;;;;;2.93;98.64;101526.29;219089;1256;139836;-67
2023/12/16 02:41:00;;;;;;;24.20;12.20;;;;;;;2.97;98.65;101528.95;218102;1256;140097;-66
2023/12/16 02:46:05;;;;;;;27.10;15.20;;;;;;;3.00;98.78;101525.48;217536;1257;140173;-64
2023/12/16 02:51:19;;;;;;;31.60;16.50;;;;;;;3.01;98.73;101531.69;219631;1256;139967;-68
2023/12/16 02:56:24;;;;;;;31.40;15.50;;;;;;;3.02;98.80;101533.19;220617;1256;140065;-66
2023/12/16 03:01:28;;;;;;;38.30;17.70;;;;;;;3.06;98.82;101526.23;220585;1256;140021;-66
2023/12/16 03:06:33;;;;;;;24.70;13.40;;;;;;;3.12;98.75;101527.02;220538;1256;140441;-66
2023/12/16 03:11:37;;;;;;;36.60;17.00;;;;;;;3.15;98.73;101520.02;220487;1256;140219;-68
2023/12/16 03:16:41;;;;;;;31.40;15.80;;;;;;;3.21;98.77;101519.89;219124;1256;140228;-67
2023/12/16 03:21:44;;;;;;;31.60;15.50;;;;;;;3.25;98.85;101517.73;219176;1256;140208;-69
2023/12/16 03:26:49;;;;;;;36.90;18.70;;;;;;;3.26;98.73;101520.63;218381;1257;140119;-65
2023/12/16 03:31:55;;;;;;;30.60;16.40;;;;;;;3.26;98.90;101524.27;218607;1256;140299;-67
2023/12/16 03:36:59;;;;;;;39.60;21.40;;;;;;;3.26;98.89;101526.57;218360;1258;139945;-65
2023/12/16 03:42:04;;;;;;;34.10;17.50;;;;;;;3.26;98.99;101527.81;217805;1257;141399;-66
2023/12/16 03:47:08;;;;;;;39.60;21.90;;;;;;;3.26;99.24;101532.79;218767;1259;140976;-65
2023/12/16 03:52:12;;;;;;;38.00;18.50;;;;;;;3.22;99.27;101535.51;218279;1256;139880;-67
2023/12/16 03:57:17;;;;;;;35.30;16.30;;;;;;;3.22;99.46;101540.54;217869;1257;140605;-67
2023/12/16 04:02:22;;;;;;;47.30;19.80;;;;;;;3.22;99.69;101549.41;217602;1257;140501;-67
2023/12/16 04:07:27;;;;;;;29.10;13.30;;;;;;;3.24;99.69;101552.63;217811;1255;140194;-67
2023/12/16 04:12:33;;;;;;;45.10;19.40;;;;;;;3.25;99.88;101538.98;217648;1257;140010;-68
2023/12/16 04:17:38;;;;;;;62.00;23.90;;;;;;;3.27;99.94;101536.36;217857;1256;140080;-66
2023/12/16 04:22:43;;;;;;;51.00;19.10;;;;;;;3.29;99.99;101535.46;217994;1257;140103;-67
2023/12/16 04:27:47;;;;;;;32.00;14.80;;;;;;;3.33;100.00;101525.25;218923;1256;140223;-66
2023/12/16 04:32:52;;;;;;;39.40;20.30;;;;;;;3.34;100.00;101532.13;218947;1257;142077;-67
2023/12/16 04:37:56;;;;;;;45.80;20.20;;;;;;;3.36;99.97;101547.56;218748;1256;140117;-67
2023/12/16 04:43:01;;;;;;;41.20;17.80;;;;;;;3.39;100.00;101570.30;218121;1259;139756;-67
2023/12/16 04:48:05;;;;;;;45.50;20.60;;;;;;;3.43;100.00;101574.56;219225;1255;140463;-66
2023/12/16 04:53:09;;;;;;;44.10;18.30;;;;;;;3.47;100.00;101577.72;219195;1256;139931;-68
2023/12/16 04:58:14;;;;;;;39.70;17.60;;;;;;;3.50;100.00;101579.35;218699;1256;140893;-66
2023/12/16 05:03:18;;;;;;;32.50;15.60;;;;;;;3.52;100.00;101573.55;220378;1257;143704;-66
2023/12/16 05:08:23;;;;;;;30.50;14.40;;;;;;;3.54;100.00;101578.92;220657;1257;140973;-67
2023/12/16 05:13:27;;;;;;;38.60;20.70;;;;;;;3.58;100.00;101590.31;219873;1256;141167;-68
2023/12/16 05:18:31;;;;;;;52.30;21.20;;;;;;;3.62;100.00;101590.84;220498;1256;141185;-67
2023/12/16 05:23:35;;;;;;;37.80;18.80;;;;;;;3.64;100.00;101594.50;219312;1256;140147;-67
2023/12/16 05:28:40;;;;;;;41.10;19.20;;;;;;;3.67;100.00;101593.69;217846;1257;140219;-67
2023/12/16 05:33:44;;;;;;;44.50;18.50;;;;;;;3.70;100.00;101594.95;219071;1259;140965;-67
2023/12/16 05:38:49;;;;;;;43.00;18.80;;;;;;;3.73;100.00;101600.18;217994;1256;140668;-64
2023/12/16 05:43:54;;;;;;;47.50;20.60;;;;;;;3.73;100.00;101607.55;219188;1256;142250;-65
2023/12/16 05:48:59;;;;;;;72.90;24.50;;;;;;;3.76;100.00;101605.15;218547;1256;140580;-65
2023/12/16 05:54:03;;;;;;;35.40;13.80;;;;;;;3.77;100.00;101603.70;219314;1256;140621;-64
2023/12/16 05:59:07;;;;;;;47.90;21.30;;;;;;;3.79;100.00;101602.12;217866;1259;140798;-64
2023/12/16 06:04:13;;;;;;;48.50;19.70;;;;;;;3.82;100.00;101595.83;219138;1256;141221;-64
2023/12/16 06:09:18;;;;;;;45.10;20.80;;;;;;;3.84;100.00;101590.74;218794;1256;140448;-65
2023/12/16 06:14:22;;;;;;;47.00;19.30;;;;;;;3.86;100.00;101600.33;217841;1257;141091;-67
2023/12/16 06:19:27;;;;;;;36.50;19.40;;;;;;;3.88;100.00;101599.61;218265;1259;140024;-65
2023/12/16 06:24:32;;;;;;;37.40;18.10;;;;;;;3.90;100.00;101607.91;218251;1257;140387;-64
2023/12/16 06:29:39;;;;;;;41.90;22.90;;;;;;;3.91;100.00;101612.16;218464;1257;140107;-63
2023/12/16 06:34:43;;;;;;;34.10;14.50;;;;;;;3.93;100.00;101624.98;217939;1257;140251;-63
2023/12/16 06:39:47;;;;;;;36.30;14.80;;;;;;;3.94;100.00;101620.89;218600;1257;140136;-65
2023/12/16 06:44:52;;;;;;;37.90;17.80;;;;;;;3.96;100.00;101624.88;217804;1257;140590;-64
2023/12/16 06:49:57;;;;;;;37.50;14.70;;;;;;;3.98;100.00;101629.91;218812;1256;139935;-67
2023/12/16 06:55:02;;;;;;;27.10;16.40;;;;;;;4.00;100.00;101641.86;220034;1255;141336;-67
2023/12/16 07:00:09;;;;;;;37.90;15.70;;;;;;;4.02;100.00;101642.24;220345;1256;140635;-67
2023/12/16 07:05:13;;;;;;;37.40;16.10;;;;;;;4.06;100.00;101642.88;220344;1256;139838;-66
2023/12/16 07:10:17;;;;;;;28.80;14.70;;;;;;;4.13;100.00;101640.88;220447;1256;140425;-66
2023/12/16 07:15:21;;;;;;;31.80;13.30;;;;;;;4.18;100.00;101646.72;219875;1256;142002;-64
2023/12/16 07:20:26;;;;;;;32.30;15.20;;;;;;;4.24;100.00;101658.09;218560;1256;141047;-65
2023/12/16 07:25:31;;;;;;;33.60;14.50;;;;;;;4.27;100.00;101660.23;219469;1256;140477;-64
2023/12/16 07:30:35;;;;;;;29.10;14.90;;;;;;;4.28;100.00;101664.89;218448;1256;140644;-65
2023/12/16 07:35:40;;;;;;;32.10;16.70;;;;;;;4.29;100.00;101663.77;217975;1257;140113;-66
2023/12/16 07:40:47;;;;;;;;;;;;;;;4.32;100.00;101665.95;219051;1257;140725;-65
2023/12/16 07:45:51;;;;;;;36.70;15.50;;;;;;;4.32;100.00;101658.70;219052;1256;127432;-66
2023/12/16 07:50:55;;;;;;;34.50;14.80;;;;;;;4.34;100.00;101650.06;218560;1256;140864;-67
2023/12/16 07:56:03;;;;;;;37.70;16.00;;;;;;;4.35;100.00;101639.61;219057;1255;141292;-66
2023/12/16 08:01:12;;;;;;;28.40;13.90;;;;;;;4.40;100.00;101644.43;218943;1256;140319;-68
2023/12/16 08:06:18;;;;;;;36.80;17.40;;;;;;;4.45;100.00;101650.49;217905;1256;141501;-65
2023/12/16 08:11:22;;;;;;;32.60;16.30;;;;;;;4.48;100.00;101649.25;217804;1257;140241;-63
2023/12/16 08:16:27;;;;;;;46.80;18.60;;;;;;;4.53;100.00;101641.64;217811;1257;142034;-66
2023/12/16 08:21:31;;;;;;;28.70;14.10;;;;;;;4.57;100.00;101640.27;217635;1256;140277;-67
2023/12/16 08:26:35;;;;;;;29.80;15.60;;;;;;;4.63;100.00;101644.77;218190;1256;140380;-69
2023/12/16 08:31:40;;;;;;;32.90;16.20;;;;;;;4.67;100.00;101649.34;217599;1255;140107;-66
2023/12/16 08:36:46;;;;;;;30.70;14.70;;;;;;;4.70;100.00;101661.72;219268;1257;140240;-69
2023/12/16 08:41:50;;;;;;;36.00;17.80;;;;;;;4.74;100.00;101671.52;219203;1256;140473;-67
2023/12/16 08:46:56;;;;;;;37.30;18.20;;;;;;;4.79;100.00;101682.00;218769;1255;140148;-67
2023/12/16 08:52:02;;;;;;;46.10;20.60;;;;;;;4.84;100.00;101685.75;219090;1256;140412;-66
2023/12/16 08:57:08;;;;;;;39.30;18.70;;;;;;;4.93;100.00;101677.40;219215;1256;140703;-66
2023/12/16 09:02:15;;;;;;;37.10;17.80;;;;;;;5.05;100.00;101673.20;219640;1256;140118;-68
2023/12/16 09:07:20;;;;;;;32.30;17.50;;;;;;;5.13;100.00;101677.54;219121;1256;140832;-68
2023/12/16 09:12:24;;;;;;;26.10;13.80;;;;;;;5.22;100.00;101679.35;220517;1256;140632;-67
2023/12/16 09:17:28;;;;;;;32.40;17.80;;;;;;;5.26;99.98;101673.97;219857;1256;139777;-67
2023/12/16 09:22:33;;;;;;;33.10;15.40;;;;;;;5.25;99.97;101674.61;218480;1256;140172;-67
2023/12/16 09:27:43;;;;;;;32.50;18.20;;;;;;;5.23;99.80;101693.16;220261;1256;142457;-67
2023/12/16 09:32:49;;;;;;;20.70;12.30;;;;;;;5.26;99.95;101690.50;219090;1256;140057;-66
2023/12/16 09:37:58;;;;;;;33.50;19.30;;;;;;;5.26;99.98;101671.16;217661;1257;139790;-67
2023/12/16 09:43:19;;;;;;;32.00;16.90;;;;;;;5.31;99.96;101665.75;218524;1256;140351;-66
2023/12/16 09:48:24;;;;;;;24.40;14.80;;;;;;;5.38;99.89;101664.95;217686;1256;140764;-66
2023/12/16 09:53:31;;;;;;;30.10;15.80;;;;;;;5.40;100.00;101670.59;218363;1257;140255;-65
2023/12/16 09:58:40;;;;;;;;;;;;;;;5.40;100.00;101674.52;218971;1257;141197;-68
2023/12/16 10:03:47;;;;;;;34.70;17.40;;;;;;;5.35;99.99;101679.41;218189;1257;126338;-70
2023/12/16 10:08:55;;;;;;;35.60;18.40;;;;;;;5.35;99.85;101681.19;217477;1255;958138;-68
2023/12/16 10:14:07;;;;;;;34.30;18.60;;;;;;;5.40;99.95;101670.81;218083;1257;139562;-67
2023/12/16 10:19:18;;;;;;;22.70;14.40;;;;;;;5.51;99.97;101661.89;218068;1256;139615;-69
2023/12/16 10:24:24;;;;;;;23.50;14.30;;;;;;;5.54;99.76;101649.27;218855;1257;141049;-67
2023/12/16 10:29:33;;;;;;;30.80;12.70;;;;;;;5.51;99.60;101640.41;218292;1257;140387;-65
2023/12/16 10:34:39;;;;;;;23.60;13.80;;;;;;;5.48;99.24;101642.17;218574;1257;140546;-67
2023/12/16 10:39:46;;;;;;;26.40;13.50;;;;;;;5.52;99.27;101647.48;218095;1257;140124;-68
2023/12/16 10:44:52;;;;;;;28.20;16.40;;;;;;;5.58;99.51;101642.63;218177;1257;231651;-67
2023/12/16 10:50:04;;;;;;;21.70;13.40;;;;;;;5.64;99.57;101630.38;218985;1257;140614;-70
2023/12/16 10:55:20;;;;;;;33.20;24.40;;;;;;;5.67;99.57;101629.36;219005;1256;141606;-72
2023/12/16 11:00:29;;;;;;;22.80;14.90;;;;;;;5.73;99.34;101618.55;217480;1257;141436;-69
2023/12/16 11:05:43;;;;;;;22.20;15.40;;;;;;;5.79;99.09;101614.26;220367;1256;140023;-69
2023/12/16 11:10:51;;;;;;;25.10;14.00;;;;;;;5.88;99.45;101616.13;219842;1257;140423;-67
2023/12/16 11:16:21;;;;;;;22.50;12.60;;;;;;;5.94;98.92;101609.42;219488;1257;139888;-68
2023/12/16 11:21:30;;;;;;;23.60;13.30;;;;;;;5.99;98.77;101601.48;219109;1256;140536;-68
2023/12/16 11:26:34;;;;;;;25.50;12.70;;;;;;;6.00;98.39;101602.77;220358;1256;140527;-67
2023/12/16 11:31:43;;;;;;;24.30;13.60;;;;;;;6.00;98.50;101606.14;217854;1257;139895;-66
2023/12/16 11:37:02;;;;;;;21.20;13.90;;;;;;;6.00;98.10;101604.72;218227;1257;140075;-68
2023/12/16 11:42:10;;;;;;;22.20;13.60;;;;;;;5.92;98.18;101600.73;217908;1257;141687;-69
2023/12/16 11:47:23;;;;;;;19.70;12.60;;;;;;;5.88;98.43;101607.66;218291;1259;141303;-67
2023/12/16 11:52:29;;;;;;;22.80;12.50;;;;;;;5.85;98.24;101612.22;217797;1257;139991;-67
2023/12/16 11:57:35;;;;;;;20.40;12.40;;;;;;;5.80;97.97;101605.91;217719;1256;143101;-66
2023/12/16 12:02:40;;;;;;;23.90;15.00;;;;;;;5.78;97.73;101600.86;218191;1259;139872;-67
2023/12/16 12:07:44;;;;;;;24.30;14.90;;;;;;;5.74;98.53;101591.80;218608;1255;139815;-68
2023/12/16 12:12:52;;;;;;;22.10;13.80;;;;;;;5.76;98.46;101587.95;218535;1257;140283;-67
2023/12/16 12:17:58;;;;;;;23.30;13.30;;;;;;;5.79;98.44;101580.55;217753;1257;140265;-67
2023/12/16 12:23:04;;;;;;;25.10;15.50;;;;;;;5.78;98.22;101575.59;218045;1257;141964;-68
2023/12/16 12:28:10;;;;;;;22.00;14.00;;;;;;;5.79;98.10;101577.81;219694;1256;141750;-67
2023/12/16 12:33:15;;;;;;;20.80;13.20;;;;;;;5.77;98.10;101576.77;218202;1259;140030;-67
2023/12/16 12:38:20;;;;;;;22.90;11.80;;;;;;;5.72;98.02;101578.73;219106;1257;140014;-68
2023/12/16 12:43:31;;;;;;;21.80;13.90;;;;;;;5.77;98.40;101572.37;219366;1256;139989;-67
2023/12/16 12:48:37;;;;;;;20.20;10.20;;;;;;;5.83;98.29;101562.55;218014;1256;139749;-67
2023/12/16 12:53:41;;;;;;;21.80;13.60;;;;;;;5.85;97.97;101547.80;220493;1256;140300;-68
2023/12/16 12:58:46;;;;;;;26.30;14.20;;;;;;;5.87;97.58;101547.41;220228;1257;140192;-67
2023/12/16 13:03:50;;;;;;;20.70;13.90;;;;;;;5.91;97.83;101544.95;220401;1256;141750;-68
2023/12/16 13:08:56;;;;;;;30.00;17.10;;;;;;;5.94;97.58;101542.18;220310;1256;140357;-67
2023/12/16 13:14:03;;;;;;;24.10;13.00;;;;;;;5.96;98.00;101535.88;218861;1257;141139;-65
2023/12/16 13:19:09;;;;;;;19.80;12.20;;;;;;;5.96;97.48;101535.17;218267;1255;141034;-65
2023/12/16 13:24:15;;;;;;;27.00;13.40;;;;;;;5.94;97.74;101537.71;218487;1257;141739;-67
2023/12/16 13:29:22;;;;;;;27.70;15.70;;;;;;;5.88;97.81;101531.98;218572;1256;140046;-67
2023/12/16 13:34:28;;;;;;;24.20;15.00;;;;;;;5.84;97.65;101531.48;218641;1257;231462;-66
2023/12/16 13:39:39;;;;;;;24.70;14.20;;;;;;;5.81;97.54;101526.06;218638;1257;142152;-67
2023/12/16 13:44:44;;;;;;;42.40;19.60;;;;;;;5.77;97.79;101529.40;218740;1257;141331;-67
2023/12/16 13:49:50;;;;;;;22.00;15.30;;;;;;;5.74;97.79;101532.92;217805;1259;141304;-65
2023/12/16 13:54:58;;;;;;;19.90;12.00;;;;;;;5.70;97.81;101528.35;219185;1257;142954;-66
2023/12/16 14:00:08;;;;;;;28.40;17.90;;;;;;;5.68;97.70;101523.64;217873;1257;141730;-66
2023/12/16 14:05:16;;;;;;;28.50;17.00;;;;;;;5.66;98.11;101517.84;218239;1257;139855;-67
2023/12/16 14:10:22;;;;;;;31.50;19.10;;;;;;;5.65;97.60;101516.91;218055;1257;141103;-66
2023/12/16 14:15:28;;;;;;;24.40;15.60;;;;;;;5.62;97.81;101516.73;217898;1257;139844;-66
2023/12/16 14:20:34;;;;;;;30.60;17.50;;;;;;;5.59;97.86;101509.96;219218;1257;140095;-66
2023/12/16 14:25:42;;;;;;;26.50;16.10;;;;;;;5.62;97.96;101501.35;218766;1257;140171;-66
2023/12/16 14:30:47;;;;;;;29.70;17.40;;;;;;;5.61;98.00;101502.70;217950;1257;140459;-66
2023/12/16 14:35:55;;;;;;;33.60;16.80;;;;;;;5.60;97.91;101501.37;218298;1258;140365;-65
2023/12/16 14:41:00;;;;;;;30.80;16.60;;;;;;;5.60;97.80;101499.09;217969;1259;140226;-66
2023/12/16 14:46:06;;;;;;;29.10;15.90;;;;;;;5.59;97.91;101516.27;218851;1257;142239;-66
2023/12/16 14:51:11;;;;;;;29.50;18.40;;;;;;;5.58;97.71;101508.84;219668;1259;140093;-66
2023/12/16 14:56:21;;;;;;;33.00;19.60;;;;;;;5.58;97.52;101498.41;219685;1259;140523;-66
2023/12/16 15:01:31;;;;;;;26.30;15.90;;;;;;;5.58;97.31;101484.80;220481;1257;140024;-66
2023/12/16 15:06:46;;;;;;;33.80;18.50;;;;;;;5.57;97.10;101478.90;219676;1259;139544;-66
2023/12/16 15:11:51;;;;;;;31.60;15.90;;;;;;;5.57;97.43;101472.23;220397;1257;140293;-67
2023/12/16 15:17:01;;;;;;;27.10;15.10;;;;;;;5.59;97.25;101468.83;220377;1257;139769;-66
2023/12/16 15:22:07;;;;;;;31.30;15.80;;;;;;;5.60;97.10;101459.05;219288;1257;139998;-66
2023/12/16 15:27:13;;;;;;;21.40;14.50;;;;;;;5.59;97.34;101448.55;218365;1257;140423;-66
2023/12/16 15:32:20;;;;;;;37.40;16.50;;;;;;;5.57;96.71;101440.71;217837;1260;140304;-66
2023/12/16 15:37:25;;;;;;;28.40;14.50;;;;;;;5.51;96.77;101438.81;219463;1256;139897;-66
2023/12/16 15:42:31;;;;;;;28.50;17.40;;;;;;;5.49;96.67;101440.80;218500;1259;140700;-66
2023/12/16 15:47:41;;;;;;;24.00;15.60;;;;;;;5.48;96.93;101450.16;218355;1259;139710;-65
2023/12/16 15:52:48;;;;;;;20.40;12.60;;;;;;;5.46;96.86;101446.14;219317;1257;141086;-67
2023/12/16 15:57:55;;;;;;;27.10;15.60;;;;;;;5.44;96.82;101447.92;217905;1257;140712;-66
2023/12/16 16:03:03;;;;;;;23.60;12.90;;;;;;;5.39;96.67;101446.45;217815;1257;140205;-67
2023/12/16 16:08:09;;;;;;;;;;;;;;;5.36;96.65;101451.22;218353;1257;140091;-66
2023/12/16 16:13:15;;;;;;;26.70;16.40;;;;;;;5.31;96.52;101450.17;218265;1260;127165;-66
2023/12/16 16:18:21;;;;;;;33.10;15.60;;;;;;;5.26;96.63;101448.36;217944;1260;140207;-66
2023/12/16 16:23:26;;;;;;;28.90;17.80;;;;;;;5.22;96.72;101444.48;218922;1259;141730;-66
2023/12/16 16:28:31;;;;;;;33.20;17.00;;;;;;;5.19;96.66;101445.53;219234;1259;139983;-66
2023/12/16 16:33:37;;;;;;;23.80;13.60;;;;;;;5.14;96.33;101451.23;218736;1259;140734;-66
2023/12/16 16:38:41;;;;;;;24.50;12.20;;;;;;;5.07;96.32;101454.75;218079;1257;140549;-65
2023/12/16 16:43:47;;;;;;;30.80;14.40;;;;;;;4.98;96.36;101454.59;217922;1258;140084;-65
2023/12/16 16:48:51;;;;;;;28.10;14.20;;;;;;;4.93;96.34;101454.20;219352;1258;141104;-66
2023/12/16 16:53:54;;;;;;;21.90;12.20;;;;;;;4.89;96.33;101454.60;218588;1255;140862;-66
2023/12/16 16:58:58;;;;;;;25.10;11.60;;;;;;;4.87;96.46;101455.60;220495;1257;140085;-66
2023/12/16 17:04:05;;;;;;;18.00;11.00;;;;;;;4.87;96.06;101455.77;220369;1257;141384;-66
2023/12/16 17:09:12;;;;;;;19.90;11.00;;;;;;;4.89;96.07;101466.90;218463;1262;230403;-66
2023/12/16 17:14:17;;;;;;;32.30;12.30;;;;;;;4.94;96.57;101469.92;220574;1256;141031;-67
2023/12/16 17:19:20;;;;;;;24.30;11.00;;;;;;;4.96;96.04;101470.77;218701;1257;139846;-66
2023/12/16 17:24:24;;;;;;;15.90;8.80;;;;;;;4.98;96.06;101465.50;219645;1258;140212;-66
2023/12/16 17:29:32;;;;;;;17.70;9.10;;;;;;;4.99;95.99;101455.85;217836;1260;140419;-66
2023/12/16 17:34:36;;;;;;;15.10;8.60;;;;;;;5.01;95.98;101460.80;217854;1259;140392;-66
2023/12/16 17:39:39;;;;;;;20.00;8.90;;;;;;;5.03;96.30;101462.36;218078;1259;139857;-66
2023/12/16 17:44:43;;;;;;;16.70;7.20;;;;;;;5.03;95.83;101457.40;218553;1257;140205;-66
2023/12/16 17:49:46;;;;;;;16.70;7.00;;;;;;;5.03;95.69;101457.21;217857;1257;139742;-65
2023/12/16 17:54:50;;;;;;;15.50;7.20;;;;;;;5.04;95.43;101459.09;218070;1258;142445;-66
2023/12/16 17:59:54;;;;;;;13.20;8.10;;;;;;;5.01;95.51;101455.81;217893;1257;140441;-65
2023/12/16 18:04:58;;;;;;;12.80;7.70;;;;;;;4.99;95.39;101451.27;219103;1259;140643;-66
2023/12/16 18:10:03;;;;;;;9.00;4.80;;;;;;;4.98;95.12;101458.79;217873;1260;140092;-66
2023/12/16 18:15:08;;;;;;;13.90;7.60;;;;;;;4.98;95.25;101453.64;218695;1259;139840;-66
2023/12/16 18:20:12;;;;;;;9.60;7.90;;;;;;;4.99;94.52;101446.38;218130;1260;140858;-65
2023/12/16 18:25:17;;;;;;;19.90;4.90;;;;;;;4.98;95.00;101440.78;218546;1259;140280;-66
2023/12/16 18:30:21;;;;;;;12.00;6.10;;;;;;;4.98;94.72;101434.77;219142;1257;140251;-66
2023/12/16 18:35:26;;;;;;;13.40;7.40;;;;;;;4.98;94.46;101427.01;219801;1259;139509;-65
2023/12/16 18:40:34;;;;;;;15.20;7.20;;;;;;;5.01;94.33;101426.96;219093;1257;139604;-66
2023/12/16 18:45:42;;;;;;;9.00;5.20;;;;;;;5.02;94.27;101432.42;220167;1257;140486;-66
2023/12/16 18:50:47;;;;;;;13.90;6.80;;;;;;;5.02;94.01;101425.98;217686;1258;140510;-64
2023/12/16 18:55:53;;;;;;;18.40;9.70;;;;;;;4.99;93.96;101424.30;219408;1257;139671;-65
2023/12/16 19:00:57;;;;;;;18.70;8.30;;;;;;;5.00;93.81;101424.91;217987;1256;222588;-66
2023/12/16 19:06:04;;;;;;;14.60;7.40;;;;;;;5.02;93.78;101419.11;220496;1257;140580;-66
2023/12/16 19:11:08;;;;;;;9.30;5.90;;;;;;;5.04;93.92;101427.15;218182;1257;139623;-66
2023/12/16 19:16:12;;;;;;;12.30;6.00;;;;;;;5.02;93.76;101426.98;219824;1257;139604;-65
2023/12/16 19:21:21;;;;;;;11.70;6.50;;;;;;;5.02;93.76;101431.20;218513;1257;142042;-65
2023/12/16 19:26:25;;;;;;;15.00;6.00;;;;;;;5.05;93.55;101422.98;218923;1257;139688;-65
2023/12/16 19:31:29;;;;;;;12.00;6.80;;;;;;;5.04;93.33;101421.53;219206;1257;140158;-65
2023/12/16 19:36:33;;;;;;;9.90;4.90;;;;;;;5.04;93.30;101425.23;218908;1256;139692;-65
2023/12/16 19:41:39;;;;;;;8.90;5.90;;;;;;;5.05;93.30;101431.52;217758;1257;139782;-65
2023/12/16 19:46:44;;;;;;;12.60;7.30;;;;;;;5.01;93.38;101431.20;219131;1257;140795;-66
2023/12/16 19:51:50;;;;;;;16.00;6.70;;;;;;;4.99;93.03;101422.72;218134;1258;140038;-65
2023/12/16 19:56:55;;;;;;;11.80;6.10;;;;;;;4.98;93.29;101418.29;217882;1257;139825;-66
2023/12/16 20:02:03;;;;;;;11.20;6.00;;;;;;;4.98;93.21;101411.38;217777;1257;141028;-65
2023/12/16 20:07:08;;;;;;;;;;;;;;;4.98;93.28;101405.73;217518;1260;140194;-65
2023/12/16 20:12:14;;;;;;;13.60;6.00;;;;;;;4.94;93.34;101385.52;218655;1257;217012;-65
2023/12/16 20:17:19;;;;;;;22.90;8.40;;;;;;;4.93;93.32;101373.47;218095;1257;139627;-65
2023/12/16 20:22:26;;;;;;;12.40;6.90;;;;;;;4.92;93.23;101364.94;218582;1257;143065;-65
2023/12/16 20:27:30;;;;;;;19.70;8.30;;;;;;;4.90;93.32;101361.73;218107;1257;140432;-65
2023/12/16 20:32:37;;;;;;;12.50;6.40;;;;;;;4.87;93.36;101371.34;217604;1257;140249;-65
2023/12/16 20:37:55;;;;;;;17.10;7.40;;;;;;;4.84;93.52;101387.84;218631;1257;139815;-65
2023/12/16 20:43:06;;;;;;;17.80;6.60;;;;;;;4.84;93.49;101403.92;217898;1257;140196;-64
2023/12/16 20:48:11;;;;;;;11.20;6.60;;;;;;;4.83;93.93;101407.83;218828;1256;139919;-65
2023/12/16 20:53:20;;;;;;;17.10;8.20;;;;;;;4.79;94.03;101403.20;220171;1256;140875;-66
2023/12/16 20:58:25;;;;;;;10.60;8.60;;;;;;;4.78;94.20;101402.75;219180;1256;140566;-64
2023/12/16 21:03:29;;;;;;;11.90;7.50;;;;;;;4.78;94.22;101400.45;220533;1256;140525;-66
2023/12/16 21:08:33;;;;;;;11.40;7.00;;;;;;;4.79;94.34;101398.20;220136;1257;141089;-66
2023/12/16 21:13:39;;;;;;;11.00;7.00;;;;;;;4.81;94.51;101404.57;219250;1256;140287;-66
2023/12/16 21:18:44;;;;;;;11.30;7.70;;;;;;;4.79;94.65;101398.74;218465;1255;140165;-66
2023/12/16 21:23:49;;;;;;;12.40;8.00;;;;;;;4.74;94.69;101383.71;217894;1256;140343;-65
2023/12/16 21:28:56;;;;;;;100.80;51.40;;;;;;;4.71;94.99;101378.74;218532;1257;139881;-69
2023/12/16 21:34:04;;;;;;;17.10;11.60;;;;;;;4.69;95.51;101379.16;219046;1256;142302;-66
2023/12/16 21:39:09;;;;;;;19.20;13.30;;;;;;;4.65;95.50;101377.48;217847;1259;139933;-66
2023/12/16 21:44:16;;;;;;;10.10;6.80;;;;;;;4.62;95.47;101378.78;219082;1256;139838;-67
2023/12/16 21:49:22;;;;;;;12.10;7.00;;;;;;;4.58;95.97;101372.02;218533;1255;139655;-68
2023/12/16 21:54:28;;;;;;;21.60;9.30;;;;;;;4.55;96.04;101370.58;218417;1257;139597;-66
2023/12/16 21:59:34;;;;;;;11.90;7.20;;;;;;;4.53;96.58;101383.66;218793;1256;140719;-68
2023/12/16 22:04:42;;;;;;;10.40;9.40;;;;;;;4.53;96.63;101375.05;218087;1259;139612;-67
2023/12/16 22:09:48;;;;;;;14.40;8.30;;;;;;;4.56;97.14;101368.08;217273;1257;846274;-66
2023/12/16 22:14:54;;;;;;;15.40;9.70;;;;;;;4.56;96.99;101347.24;218401;1257;139685;-70
2023/12/16 22:20:00;;;;;;;10.80;8.80;;;;;;;4.56;97.17;101330.01;217951;1256;139944;-66
2023/12/16 22:25:08;;;;;;;12.40;8.00;;;;;;;4.56;97.37;101293.56;219465;1256;140312;-67
2023/12/16 22:30:13;;;;;;;17.10;8.40;;;;;;;4.57;97.41;101280.79;218421;1256;140351;-67
2023/12/16 22:35:20;;;;;;;11.70;8.30;;;;;;;4.57;97.60;101277.63;217921;1256;142561;-68
2023/12/16 22:40:32;;;;;;;13.20;7.50;;;;;;;4.56;97.57;101274.55;218590;1256;139948;-68
2023/12/16 22:45:37;;;;;;;12.50;7.00;;;;;;;4.55;97.61;101289.13;219971;1256;139818;-68
2023/12/16 22:50:43;;;;;;;16.10;9.70;;;;;;;4.55;97.70;101303.71;219592;1257;139787;-68
2023/12/16 22:55:48;;;;;;;20.20;8.80;;;;;;;4.58;97.98;101298.58;219793;1256;141982;-68